»·PEaware :: WAT390 KPAE-KSFO

WAT390 :: KPAE-KSFO

FLIGHT INFORMATION

Flight Status: Arrived
Operator:
Walker Air Transport
More flights by this operator :: More flights under this callsign
Pilot: Ewen S. (18928)
Aircraft: BOEING 727-200
(B722)
More flights by this aircraft type
Origin: KPAE Paine Field/Snohomish Co.
United States
Destination: KSFO San Francisco Intl
United States
More flights between these airports :: More routes between these airports
Route: +PAINE6 OLM J126 RBL PYE SFO
File this flight plan on PilotEdge
Remarks:
Altitude:
(Current/Filed)
35,000ft
Speed:
(Current/Filed)
450kts
Departed: 21-Nov-20 02:12 PM
Arrived: 21-Nov-20 03:54 PM
Distance/Time
Traveled:
616nm/1:42
Distance/Time
To Go:
Arrived

Flight Plot

Page will automatically refresh every two minutes.

Flight plan parsing failed; only flown route is shown


Map Options




Map Legend


Flown Route
Filed Route
Departure Airport
Arrival Airport
Navaid (VOR, NDB)
Fix

Horizontal Profiles

Position Reports

Time Latitude Longitude Heading Altitude Ground
Speed
21-Nov-20 13:37 47.907995 -122.278916 0 573ft 0kts
21-Nov-20 13:38 47.907995 -122.278916 44 573ft 0kts
21-Nov-20 13:39 47.907995 -122.278916 44 573ft 0kts
21-Nov-20 13:40 47.907995 -122.278916 44 573ft 0kts
21-Nov-20 13:41 47.907995 -122.278916 44 573ft 0kts
21-Nov-20 13:42 47.907995 -122.278916 44 573ft 0kts
21-Nov-20 13:43 47.907995 -122.278916 44 573ft 0kts
21-Nov-20 13:44 47.907995 -122.278916 44 573ft 0kts
21-Nov-20 13:45 47.907995 -122.278916 44 573ft 0kts
21-Nov-20 13:46 47.907995 -122.278916 44 573ft 0kts
21-Nov-20 13:47 47.907995 -122.278916 44 573ft 0kts
21-Nov-20 13:48 47.907995 -122.278916 44 573ft 0kts
21-Nov-20 13:49 47.907995 -122.278916 44 573ft 0kts
21-Nov-20 13:50 47.907995 -122.278916 44 573ft 0kts
21-Nov-20 13:51 47.907995 -122.278916 44 573ft 0kts
21-Nov-20 13:52 47.907995 -122.278916 44 573ft 0kts
21-Nov-20 13:53 47.907995 -122.278916 44 573ft 0kts
21-Nov-20 13:54 47.907995 -122.278916 44 573ft 0kts
21-Nov-20 13:55 47.907995 -122.278916 44 573ft 0kts
21-Nov-20 13:56 47.907995 -122.278916 44 573ft 0kts
21-Nov-20 13:57 47.907995 -122.278916 44 573ft 0kts
21-Nov-20 13:58 47.907833 -122.279148 44 573ft 2kts
21-Nov-20 13:59 47.907406 -122.279630 355 573ft 2kts
21-Nov-20 14:00 47.907208 -122.279464 313 573ft 0kts
21-Nov-20 14:01 47.907208 -122.279464 313 573ft 0kts
21-Nov-20 14:03 47.907208 -122.279464 313 573ft 0kts
21-Nov-20 14:04 47.907208 -122.279464 313 573ft 0kts
21-Nov-20 14:05 47.907208 -122.279464 313 573ft 0kts
21-Nov-20 14:06 47.907208 -122.279464 313 573ft 0kts
21-Nov-20 14:07 47.907402 -122.279867 298 573ft 5kts
21-Nov-20 14:08 47.909056 -122.283110 324 573ft 15kts
21-Nov-20 14:09 47.914083 -122.283508 1 573ft 19kts
21-Nov-20 14:10 47.919947 -122.283951 356 573ft 22kts
21-Nov-20 14:11 47.920984 -122.284099 345 573ft 7kts
21-Nov-20 14:12 47.916404 -122.285783 179 573ft 97kts
21-Nov-20 14:13 47.870931 -122.282666 177 1946ft 205kts
21-Nov-20 14:14 47.826997 -122.330155 262 3275ft 208kts
21-Nov-20 14:15 47.821331 -122.418860 265 4493ft 234kts
21-Nov-20 14:16 47.791158 -122.503759 214 7629ft 262kts
21-Nov-20 14:17 47.730755 -122.560010 200 10891ft 267kts
21-Nov-20 14:17 47.671268 -122.588909 205 13258ft 274kts
21-Nov-20 14:19 47.583670 -122.642739 207 15034ft 332kts
21-Nov-20 14:19 47.510727 -122.684418 202 17344ft 340kts
21-Nov-20 14:20 47.417222 -122.722176 197 19701ft 351kts
21-Nov-20 14:22 47.307377 -122.770288 201 22124ft 355kts
21-Nov-20 14:22 47.227544 -122.802636 199 23562ft 363kts
21-Nov-20 14:24 47.111605 -122.846946 200 25296ft 373kts
21-Nov-20 14:24 47.027281 -122.880302 200 26390ft 379kts
21-Nov-20 14:26 46.900162 -122.889234 192 27623ft 394kts
21-Nov-20 14:26 46.811256 -122.907126 194 28464ft 399kts
21-Nov-20 14:27 46.698676 -122.912894 184 29721ft 405kts
21-Nov-20 14:28 46.584624 -122.916858 189 30569ft 410kts
21-Nov-20 14:29 46.472408 -122.927351 189 31362ft 417kts
21-Nov-20 14:30 46.376304 -122.935623 188 31427ft 436kts
21-Nov-20 14:31 46.252480 -122.943055 187 31417ft 446kts
21-Nov-20 14:32 46.126239 -122.947474 186 31403ft 455kts
21-Nov-20 14:33 45.997349 -122.946559 178 31399ft 468kts
21-Nov-20 14:34 45.868245 -122.939417 187 31401ft 468kts
21-Nov-20 14:35 45.738754 -122.957551 191 31398ft 471kts
21-Nov-20 14:36 45.606897 -122.970103 185 31423ft 479kts
21-Nov-20 14:37 45.471493 -122.972762 186 31421ft 484kts
21-Nov-20 14:38 45.336214 -122.978810 185 31419ft 489kts
21-Nov-20 14:39 45.201048 -122.999225 196 31415ft 483kts
21-Nov-20 14:40 45.068229 -123.032288 189 31417ft 490kts
21-Nov-20 14:41 44.932761 -123.058260 193 31422ft 491kts
21-Nov-20 14:42 44.828395 -123.082534 193 31421ft 493kts
21-Nov-20 14:43 44.691402 -123.112812 192 31421ft 495kts
21-Nov-20 14:44 44.553792 -123.135707 188 31421ft 498kts
21-Nov-20 14:45 44.416237 -123.161551 193 31421ft 497kts
21-Nov-20 14:46 44.279714 -123.192486 191 31421ft 499kts
21-Nov-20 14:47 44.141876 -123.218562 191 31421ft 500kts
21-Nov-20 14:48 44.004569 -123.206192 159 31421ft 510kts
21-Nov-20 14:49 43.871200 -123.172157 176 31420ft 502kts
21-Nov-20 14:50 43.731486 -123.147989 175 31419ft 504kts
21-Nov-20 14:51 43.591655 -123.121553 174 31409ft 501kts
21-Nov-20 14:52 43.453565 -123.094697 174 31399ft 494kts
21-Nov-20 14:53 43.318116 -123.068273 174 31401ft 489kts
21-Nov-20 14:54 43.184219 -123.042476 174 31401ft 484kts
21-Nov-20 14:55 43.052666 -123.005537 168 31402ft 481kts
21-Nov-20 14:56 42.921018 -122.989657 183 31398ft 472kts
21-Nov-20 14:57 42.802518 -122.983433 176 31395ft 472kts
21-Nov-20 14:58 42.672609 -122.953803 170 31392ft 470kts
21-Nov-20 14:59 42.543331 -122.925179 174 31377ft 466kts
21-Nov-20 15:00 42.418088 -122.879221 163 31384ft 467kts
21-Nov-20 15:01 42.291617 -122.841428 172 31384ft 462kts
21-Nov-20 15:02 42.164423 -122.814671 174 31384ft 461kts
21-Nov-20 15:03 42.036880 -122.783859 172 31389ft 467kts
21-Nov-20 15:04 41.907414 -122.752606 171 31406ft 478kts
21-Nov-20 15:05 41.789671 -122.721690 170 31404ft 486kts
21-Nov-20 15:06 41.655585 -122.683311 169 31404ft 494kts
21-Nov-20 15:07 41.519483 -122.642802 169 31403ft 501kts
21-Nov-20 15:08 41.382340 -122.602371 169 31388ft 507kts
21-Nov-20 15:09 41.242457 -122.562566 170 31320ft 512kts
21-Nov-20 15:10 41.107037 -122.523214 169 31330ft 513kts
21-Nov-20 15:11 40.978159 -122.478711 167 31329ft 515kts
21-Nov-20 15:12 40.854211 -122.442740 171 31329ft 515kts
21-Nov-20 15:13 40.712542 -122.409580 172 31259ft 516kts
21-Nov-20 15:14 40.571481 -122.373372 169 31182ft 518kts
21-Nov-20 15:15 40.430368 -122.329885 169 31191ft 518kts
21-Nov-20 15:16 40.293831 -122.289463 171 31186ft 498kts
21-Nov-20 15:17 40.165747 -122.254536 170 30094ft 453kts
21-Nov-20 15:18 40.043646 -122.228887 192 27756ft 433kts
21-Nov-20 15:19 39.931883 -122.281069 209 25445ft 416kts
21-Nov-20 15:20 39.835201 -122.317197 195 24234ft 399kts
21-Nov-20 15:21 39.728023 -122.354024 198 24249ft 395kts
21-Nov-20 15:22 39.615965 -122.394758 197 24260ft 435kts
21-Nov-20 15:23 39.493483 -122.435880 196 24272ft 468kts
21-Nov-20 15:24 39.385337 -122.469781 195 24269ft 491kts
21-Nov-20 15:25 39.249062 -122.511067 195 24268ft 511kts
21-Nov-20 15:26 39.108501 -122.553847 196 24267ft 525kts
21-Nov-20 15:27 38.964756 -122.597177 194 24258ft 533kts
21-Nov-20 15:28 38.836827 -122.634673 197 24233ft 476kts
21-Nov-20 15:29 38.720568 -122.675766 199 23232ft 400kts
21-Nov-20 15:30 38.618527 -122.713492 197 21055ft 394kts
21-Nov-20 15:31 38.512861 -122.745370 194 18920ft 384kts
21-Nov-20 15:32 38.408568 -122.772041 193 16814ft 375kts
21-Nov-20 15:33 38.309144 -122.799744 194 16008ft 348kts
21-Nov-20 15:34 38.212409 -122.828975 195 16024ft 369kts
21-Nov-20 15:35 38.106557 -122.852033 169 16019ft 394kts
21-Nov-20 15:36 38.020361 -122.769703 138 15806ft 378kts
21-Nov-20 15:37 37.943998 -122.689962 144 13715ft 339kts
21-Nov-20 15:38 37.874611 -122.621440 130 12695ft 321kts
21-Nov-20 15:39 37.820003 -122.535544 128 11487ft 314kts
21-Nov-20 15:40 37.768507 -122.454028 127 10200ft 252kts
21-Nov-20 15:41 37.726269 -122.388898 127 8896ft 245kts
21-Nov-20 15:42 37.683322 -122.323488 128 8154ft 241kts
21-Nov-20 15:43 37.642027 -122.260712 128 7135ft 235kts
21-Nov-20 15:44 37.600025 -122.197369 128 6072ft 231kts
21-Nov-20 15:45 37.563997 -122.130590 118 4984ft 227kts
21-Nov-20 15:46 37.515281 -122.097517 217 3690ft 237kts
21-Nov-20 15:47 37.520831 -122.157328 320 3321ft 169kts
21-Nov-20 15:48 37.549324 -122.207699 306 2655ft 169kts
21-Nov-20 15:49 37.569546 -122.251721 303 1896ft 138kts
21-Nov-20 15:50 37.586489 -122.292131 297 1189ft 131kts
21-Nov-20 15:51 37.603118 -122.332227 301 646ft 127kts
21-Nov-20 15:52 37.619032 -122.370373 298 21ft 95kts
21-Nov-20 15:53 37.624687 -122.381271 11 17ft 0kts
21-Nov-20 15:54 37.625848 -122.382804 298 17ft 27kts
21-Nov-20 15:55 37.629322 -122.391032 298 17ft 23kts
21-Nov-20 15:56 37.632500 -122.391684 320 18ft 14kts
21-Nov-20 15:57 37.634306 -122.390144 65 21ft 10kts
21-Nov-20 15:58 37.637295 -122.389601 317 21ft 10kts
21-Nov-20 16:00 37.638377 -122.389588 61 22ft 0kts
21-Nov-20 16:01 37.638376 -122.389588 61 22ft 0kts

Navigation Log

Ident Type
Flight plan parsing failed, navigation log unavailable